»·PEaware :: N555HP KSAN-KLAS

N555HP :: KSAN-KLAS

FLIGHT INFORMATION

Flight Status: Arrived
Operator: Privately registered:
United States
More flights under this callsign
Pilot: Adam R. (28816)
Aircraft: SOCATA TBM-900
(TBM9)
More flights by this aircraft type
Origin: KSAN San Diego Intl-Lindbergh
United States
Destination: KLAS McCarran Intl
United States
More flights between these airports :: More routes between these airports
Route: +BRDR7 JLI V514 TNP DANBY CRESO4
File this flight plan on PilotEdge
Remarks:
Altitude:
(Current/Filed)
27,000ft
Speed:
(Current/Filed)
225kts
Departed: 14-Aug-20 11:29 AM
Arrived: 14-Aug-20 12:35 PM
Distance/Time
Traveled:
224nm/1:06
Distance/Time
To Go:
Arrived

Flight Plot

Page will automatically refresh every two minutes.

Flight plan parsing failed; only flown route is shown


Map Options




Map Legend


Flown Route
Filed Route
Departure Airport
Arrival Airport
Navaid (VOR, NDB)
Fix

Horizontal Profiles

Position Reports

Time Latitude Longitude Heading Altitude Ground
Speed
14-Aug-20 11:19 32.732250 -117.177391 195 19ft 0kts
14-Aug-20 11:20 32.732250 -117.177391 195 19ft 0kts
14-Aug-20 11:21 32.732250 -117.177391 195 19ft 0kts
14-Aug-20 11:22 32.732250 -117.177391 195 19ft 0kts
14-Aug-20 11:22 32.732250 -117.177391 195 19ft 0kts
14-Aug-20 11:24 32.732250 -117.177391 195 19ft 0kts
14-Aug-20 11:25 32.731305 -117.176406 109 19ft 9kts
14-Aug-20 11:26 32.730986 -117.175583 136 21ft 0kts
14-Aug-20 11:26 32.730986 -117.175583 136 21ft 0kts
14-Aug-20 11:27 32.730959 -117.175552 136 21ft 2kts
14-Aug-20 11:28 32.732325 -117.184731 287 75ft 109kts
14-Aug-20 11:30 32.742061 -117.233072 288 2208ft 126kts
14-Aug-20 11:30 32.751869 -117.266273 287 3512ft 130kts
14-Aug-20 11:31 32.760605 -117.307997 241 5393ft 140kts
14-Aug-20 11:32 32.727533 -117.293321 136 7383ft 162kts
14-Aug-20 11:33 32.697119 -117.254639 138 9498ft 159kts
14-Aug-20 11:34 32.666555 -117.217188 137 11596ft 160kts
14-Aug-20 11:35 32.636531 -117.179260 127 14049ft 161kts
14-Aug-20 11:36 32.621065 -117.127319 104 16189ft 175kts
14-Aug-20 11:37 32.615781 -117.068328 100 18331ft 185kts
14-Aug-20 11:38 32.611935 -117.006465 99 20486ft 192kts
14-Aug-20 11:39 32.614101 -116.941512 87 22386ft 205kts
14-Aug-20 11:40 32.658669 -116.899353 28 24301ft 226kts
14-Aug-20 11:41 32.715003 -116.863686 30 26127ft 233kts
14-Aug-20 11:42 32.776009 -116.824086 29 27036ft 278kts
14-Aug-20 11:43 32.847582 -116.777538 29 27020ft 309kts
14-Aug-20 11:44 32.924504 -116.727374 29 27030ft 320kts
14-Aug-20 11:45 33.003159 -116.675939 29 27039ft 324kts
14-Aug-20 11:46 33.082904 -116.623695 28 27040ft 327kts
14-Aug-20 11:47 33.152857 -116.575072 35 27029ft 327kts
14-Aug-20 11:48 33.226635 -116.511159 35 26978ft 328kts
14-Aug-20 11:49 33.300769 -116.446667 35 26887ft 330kts
14-Aug-20 11:50 33.374961 -116.381981 35 26844ft 329kts
14-Aug-20 11:51 33.447948 -116.318179 36 26843ft 326kts
14-Aug-20 11:52 33.521447 -116.253821 36 26844ft 327kts
14-Aug-20 11:53 33.595305 -116.189008 36 26844ft 327kts
14-Aug-20 11:54 33.669810 -116.126767 34 26845ft 327kts
14-Aug-20 11:55 33.745855 -116.065769 34 26845ft 328kts
14-Aug-20 11:56 33.818317 -116.007507 34 26845ft 328kts
14-Aug-20 11:57 33.894072 -115.946446 34 26846ft 328kts
14-Aug-20 11:58 33.969601 -115.885450 34 26910ft 325kts
14-Aug-20 11:59 34.044525 -115.824810 34 27035ft 324kts
14-Aug-20 12:00 34.120770 -115.772124 12 27107ft 324kts
14-Aug-20 12:01 34.210480 -115.771104 357 27109ft 323kts
14-Aug-20 12:02 34.300545 -115.772434 357 27109ft 324kts
14-Aug-20 12:03 34.391057 -115.773818 357 26578ft 336kts
14-Aug-20 12:04 34.486972 -115.775078 357 25104ft 349kts
14-Aug-20 12:05 34.583742 -115.776327 358 24062ft 340kts
14-Aug-20 12:06 34.675811 -115.777512 357 24061ft 324kts
14-Aug-20 12:07 34.765057 -115.778675 357 24064ft 320kts
14-Aug-20 12:08 34.854011 -115.779848 358 23442ft 325kts
14-Aug-20 12:09 34.945962 -115.780996 356 21963ft 332kts
14-Aug-20 12:10 35.038047 -115.782200 354 20486ft 329kts
14-Aug-20 12:11 35.127974 -115.783454 354 18833ft 323kts
14-Aug-20 12:12 35.217951 -115.784648 355 16764ft 324kts
14-Aug-20 12:13 35.307665 -115.782224 16 14267ft 323kts
14-Aug-20 12:14 35.371345 -115.706294 44 12274ft 324kts
14-Aug-20 12:15 35.431404 -115.626071 44 10668ft 314kts
14-Aug-20 12:16 35.488007 -115.550322 44 10032ft 285kts
14-Aug-20 12:17 35.540492 -115.479962 44 10036ft 275kts
14-Aug-20 12:18 35.591952 -115.410861 44 10038ft 273kts
14-Aug-20 12:19 35.642945 -115.342252 44 10036ft 271kts
14-Aug-20 12:20 35.692194 -115.275849 44 9169ft 256kts
14-Aug-20 12:21 35.739755 -115.211602 45 8157ft 251kts
14-Aug-20 12:22 35.788992 -115.159474 21 8040ft 223kts
14-Aug-20 12:23 35.847033 -115.127474 21 8031ft 232kts
14-Aug-20 12:24 35.907479 -115.094348 21 8023ft 239kts
14-Aug-20 12:25 35.968907 -115.060845 21 8014ft 241kts
14-Aug-20 12:26 36.031954 -115.026660 21 8005ft 252kts
14-Aug-20 12:27 36.097386 -114.991986 21 6658ft 243kts
14-Aug-20 12:28 36.152855 -114.967821 342 5865ft 165kts
14-Aug-20 12:29 36.174775 -115.020316 290 4428ft 188kts
14-Aug-20 12:30 36.185648 -115.080943 257 3783ft 179kts
14-Aug-20 12:31 36.152070 -115.125757 213 3077ft 169kts
14-Aug-20 12:32 36.117549 -115.146320 203 2597ft 106kts
14-Aug-20 12:33 36.093047 -115.160232 206 2107ft 58kts
14-Aug-20 12:34 36.089360 -115.163411 294 2127ft 0kts
14-Aug-20 12:35 36.087696 -115.165698 204 2140ft 25kts
14-Aug-20 12:36 36.081479 -115.169589 272 2165ft 12kts
14-Aug-20 12:37 36.081085 -115.171444 109 2169ft 2kts

Navigation Log

Ident Type
Flight plan parsing failed, navigation log unavailable